createdAt,value
2023-04-12T00:01:26.134Z,73.20
2023-04-12T00:03:54.415Z,76.70
2023-04-12T00:06:25.338Z,78.60
2023-04-12T00:08:53.143Z,79.70
2023-04-12T00:11:20.852Z,81.90
2023-04-12T00:13:48.614Z,83.00
2023-04-12T00:16:16.450Z,84.20
2023-04-12T00:18:45.689Z,84.90
2023-04-12T00:21:13.546Z,85.10
2023-04-12T00:23:41.308Z,85.60
2023-04-12T00:26:09.036Z,85.00
2023-04-12T00:28:37.253Z,84.90
2023-04-12T00:31:05.198Z,86.50
2023-04-12T00:33:34.263Z,88.10
2023-04-12T00:36:03.380Z,90.00
2023-04-12T00:38:31.280Z,90.00
2023-04-12T00:40:58.999Z,90.00
2023-04-12T00:43:27.271Z,90.00
2023-04-12T00:45:57.777Z,89.40
2023-04-12T00:48:26.336Z,90.90
2023-04-12T00:50:55.569Z,91.90
2023-04-12T00:53:25.088Z,92.90
2023-04-12T00:55:53.331Z,93.90
2023-04-12T00:58:22.669Z,93.90
2023-04-12T01:00:52.941Z,95.80
2023-04-12T01:03:23.290Z,96.20
2023-04-12T01:06:01.334Z,97.40
2023-04-12T01:08:40.168Z,97.80
2023-04-12T01:11:17.276Z,97.90
2023-04-12T01:13:49.961Z,98.80
2023-04-12T01:16:26.610Z,99.20
2023-04-12T01:18:59.298Z,99.90
2023-04-12T01:21:36.732Z,99.90
2023-04-12T01:24:24.615Z,99.90
2023-04-12T01:26:53.524Z,99.90
2023-04-12T01:29:25.716Z,99.90
2023-04-12T01:31:58.823Z,99.90
2023-04-12T01:34:29.382Z,99.90
2023-04-12T01:36:59.437Z,99.90
2023-04-12T01:39:28.003Z,99.90
2023-04-12T01:41:55.733Z,99.90
2023-04-12T01:44:24.781Z,99.90
2023-04-12T01:46:54.082Z,99.90
2023-04-12T01:49:24.808Z,99.90
2023-04-12T01:51:59.597Z,99.90
2023-04-12T01:54:30.182Z,99.90
2023-04-12T01:57:00.583Z,99.90
2023-04-12T01:59:33.516Z,99.90
2023-04-12T02:02:02.187Z,99.90
2023-04-12T02:04:31.061Z,99.90
2023-04-12T02:06:58.986Z,99.90
2023-04-12T02:09:27.336Z,99.90
2023-04-12T02:11:55.191Z,99.90
2023-04-12T02:14:23.048Z,99.90
2023-04-12T02:16:54.783Z,99.90
2023-04-12T02:19:22.636Z,99.90
2023-04-12T02:21:51.122Z,99.90
2023-04-12T02:24:18.841Z,99.90
2023-04-12T02:26:49.627Z,99.90
2023-04-12T02:29:17.422Z,99.90
2023-04-12T02:31:45.170Z,99.90
2023-04-12T02:34:15.964Z,99.90
2023-04-12T02:36:47.852Z,99.90
2023-04-12T02:39:18.255Z,99.90
2023-04-12T02:41:46.211Z,99.90
2023-04-12T02:44:14.119Z,99.90
2023-04-12T02:46:41.872Z,99.90
2023-04-12T02:49:09.572Z,99.90
2023-04-12T02:51:39.108Z,99.90
2023-04-12T02:54:07.162Z,99.90
2023-04-12T02:56:36.904Z,99.90
2023-04-12T02:59:04.768Z,99.90
2023-04-12T03:01:33.676Z,99.90
2023-04-12T03:04:02.066Z,99.90
2023-04-12T03:06:30.090Z,99.90
2023-04-12T03:08:59.307Z,99.90
2023-04-12T03:11:26.998Z,99.90
2023-04-12T03:13:55.219Z,99.90
2023-04-12T03:16:24.460Z,99.90
2023-04-12T03:18:52.217Z,99.90
2023-04-12T03:21:19.916Z,99.90
2023-04-12T03:23:47.676Z,99.90
2023-04-12T03:26:20.314Z,99.90
2023-04-12T03:28:48.106Z,99.90
2023-04-12T03:31:21.495Z,99.90
2023-04-12T03:33:49.540Z,99.90
2023-04-12T03:36:17.362Z,99.90
2023-04-12T03:38:45.229Z,99.90
2023-04-12T03:41:12.993Z,99.90
2023-04-12T03:43:42.567Z,99.90
2023-04-12T03:46:10.740Z,99.90
2023-04-12T03:48:38.707Z,99.90
2023-04-12T03:51:08.566Z,99.90
2023-04-12T03:53:36.887Z,99.90
2023-04-12T03:56:04.753Z,99.90
2023-04-12T03:58:33.704Z,99.90
2023-04-12T04:01:05.862Z,99.90
2023-04-12T04:03:34.723Z,99.90
2023-04-12T04:06:03.052Z,99.90
2023-04-12T04:08:32.446Z,99.90
2023-04-12T04:11:00.853Z,99.90
2023-04-12T04:13:28.560Z,99.90
2023-04-12T04:16:03.543Z,99.90
2023-04-12T04:18:31.541Z,99.90
2023-04-12T04:20:59.636Z,99.90
2023-04-12T04:23:29.158Z,99.90
2023-04-12T04:25:57.378Z,99.90
2023-04-12T04:28:25.227Z,99.90
2023-04-12T04:30:56.150Z,99.90
2023-04-12T04:33:25.222Z,99.90
2023-04-12T04:35:54.396Z,99.90
2023-04-12T04:38:25.479Z,99.90
2023-04-12T04:40:54.093Z,99.90
2023-04-12T04:43:22.034Z,99.90
2023-04-12T04:45:54.500Z,99.90
2023-04-12T04:48:22.322Z,99.90
2023-04-12T04:50:52.624Z,99.90
2023-04-12T04:53:23.032Z,99.90
2023-04-12T04:55:50.834Z,99.90
2023-04-12T04:58:18.576Z,99.90
2023-04-12T05:00:46.539Z,99.90
2023-04-12T05:03:14.404Z,99.90
2023-04-12T05:05:42.224Z,99.90
2023-04-12T05:08:11.505Z,99.90
2023-04-12T05:10:39.207Z,99.90
2023-04-12T05:13:06.885Z,99.90
2023-04-12T05:15:35.091Z,99.90
2023-04-12T05:18:03.056Z,99.90
2023-04-12T05:20:31.870Z,99.90
2023-04-12T05:22:59.679Z,99.90
2023-04-12T05:25:28.713Z,99.90
2023-04-12T05:27:56.600Z,99.90
2023-04-12T05:30:24.591Z,99.90
2023-04-12T05:32:52.425Z,99.90
2023-04-12T05:35:20.305Z,99.90
2023-04-12T05:37:48.083Z,99.90
2023-04-12T05:40:16.040Z,99.90
2023-04-12T05:42:45.398Z,99.90
2023-04-12T05:45:13.098Z,99.90
2023-04-12T05:47:40.887Z,99.90
2023-04-12T05:50:09.472Z,99.90
2023-04-12T05:52:38.179Z,99.90
2023-04-12T05:55:06.682Z,99.90
2023-04-12T05:57:34.454Z,99.90
2023-04-12T06:00:07.001Z,99.90
2023-04-12T06:02:35.050Z,99.90
2023-04-12T06:05:03.786Z,99.90
2023-04-12T06:07:31.946Z,99.90
2023-04-12T06:09:59.628Z,99.90
2023-04-12T06:12:27.337Z,99.90
2023-04-12T06:14:55.838Z,99.90
2023-04-12T06:17:25.018Z,99.90
2023-04-12T06:19:52.947Z,99.90
2023-04-12T06:22:20.797Z,99.90
2023-04-12T06:24:48.493Z,99.90
2023-04-12T06:27:16.211Z,99.90
2023-04-12T06:29:43.908Z,99.90
2023-04-12T06:32:11.713Z,99.90
2023-04-12T06:34:41.495Z,99.90
2023-04-12T06:37:09.342Z,99.90
2023-04-12T06:39:37.219Z,99.90
2023-04-12T06:42:05.201Z,99.90
2023-04-12T06:44:33.404Z,99.90
2023-04-12T06:47:01.296Z,99.90
2023-04-12T06:49:29.348Z,99.90
2023-04-12T06:51:58.510Z,99.90
2023-04-12T06:54:26.493Z,99.90
2023-04-12T06:56:54.237Z,99.90
2023-04-12T06:59:21.930Z,99.90
2023-04-12T07:01:49.742Z,99.90
2023-04-12T07:04:17.849Z,99.90
2023-04-12T07:06:45.931Z,99.90
2023-04-12T07:09:15.685Z,99.90
2023-04-12T07:11:43.451Z,99.90
2023-04-12T07:14:11.200Z,99.90
2023-04-12T07:16:38.956Z,99.90
2023-04-12T07:19:06.773Z,99.90
2023-04-12T07:21:34.533Z,99.90
2023-04-12T07:24:02.543Z,99.90
2023-04-12T07:26:31.859Z,99.90
2023-04-12T07:28:59.846Z,99.90
2023-04-12T07:31:30.415Z,99.90
2023-04-12T07:33:58.277Z,99.90
2023-04-12T07:36:27.053Z,99.90
2023-04-12T07:38:56.521Z,99.90
2023-04-12T07:41:24.706Z,99.90
2023-04-12T07:43:53.752Z,99.90
2023-04-12T07:46:21.515Z,99.90
2023-04-12T07:48:49.403Z,99.90
2023-04-12T07:51:17.552Z,99.90
2023-04-12T07:53:48.190Z,99.90
2023-04-12T07:56:16.223Z,99.90
2023-04-12T07:58:44.089Z,99.90
2023-04-12T08:01:15.424Z,99.90
2023-04-12T08:03:45.222Z,99.90
2023-04-12T08:06:15.521Z,99.90
2023-04-12T08:08:45.517Z,99.90
2023-04-12T08:11:15.211Z,99.90
2023-04-12T08:13:44.803Z,99.90
2023-04-12T08:16:16.232Z,99.90
2023-04-12T08:18:45.999Z,99.90
2023-04-12T08:21:15.904Z,99.90
2023-04-12T08:23:45.591Z,99.90
2023-04-12T08:26:15.391Z,99.90
2023-04-12T08:28:45.158Z,99.90
2023-04-12T08:31:16.906Z,99.90
2023-04-12T08:33:46.650Z,99.90
2023-04-12T08:36:16.570Z,99.90
2023-04-12T08:38:46.849Z,99.90
2023-04-12T08:41:16.904Z,99.90
2023-04-12T08:43:48.094Z,99.90
2023-04-12T08:46:19.333Z,99.90
2023-04-12T08:48:50.258Z,99.90
2023-04-12T08:51:20.831Z,99.90
2023-04-12T08:53:51.617Z,99.90
2023-04-12T08:56:22.631Z,99.90
2023-04-12T08:58:51.882Z,99.90
2023-04-12T09:01:22.018Z,99.90
2023-04-12T09:03:50.055Z,99.90
2023-04-12T09:06:17.997Z,99.90
2023-04-12T09:08:56.708Z,99.90
2023-04-12T09:11:25.868Z,99.90
2023-04-12T09:13:54.426Z,99.90
2023-04-12T09:16:40.458Z,99.90
2023-04-12T09:19:09.381Z,99.90
2023-04-12T09:21:37.829Z,99.90
2023-04-12T09:24:11.653Z,99.90
2023-04-12T09:26:41.309Z,99.90
2023-04-12T09:29:24.887Z,99.90
2023-04-12T09:32:02.753Z,99.90
2023-04-12T09:34:31.252Z,99.90
2023-04-12T09:36:59.742Z,99.90
2023-04-12T09:39:38.162Z,99.90
2023-04-12T09:42:14.826Z,99.90
2023-04-12T09:44:53.894Z,99.90
2023-04-12T09:47:23.089Z,99.90
2023-04-12T09:49:50.985Z,99.90
2023-04-12T09:52:18.965Z,99.90
2023-04-12T09:54:47.859Z,99.90
2023-04-12T09:57:18.704Z,99.90
2023-04-12T09:59:51.192Z,99.90
2023-04-12T10:02:20.712Z,99.90
2023-04-12T10:04:50.073Z,99.90
2023-04-12T10:07:18.436Z,99.90
2023-04-12T10:09:46.553Z,99.90
2023-04-12T10:12:14.354Z,99.90
2023-04-12T10:14:44.483Z,99.90
2023-04-12T10:17:14.012Z,99.90
2023-04-12T10:19:41.914Z,99.90
2023-04-12T10:22:11.876Z,99.90
2023-04-12T10:24:40.093Z,99.90
2023-04-12T10:27:08.076Z,99.90
2023-04-12T10:29:37.161Z,99.90
2023-04-12T10:32:21.090Z,99.90
2023-04-12T10:34:53.211Z,99.90
2023-04-12T10:37:22.310Z,99.90
2023-04-12T10:39:54.500Z,99.90
2023-04-12T10:42:27.307Z,99.90
2023-04-12T10:44:58.755Z,99.90
2023-04-12T10:48:03.711Z,99.90
2023-04-12T10:50:33.812Z,99.90
2023-04-12T10:53:27.309Z,99.90
2023-04-12T10:55:55.185Z,99.90
2023-04-12T10:59:06.217Z,99.90
2023-04-12T11:01:37.792Z,99.90
2023-04-12T11:04:12.472Z,99.90
2023-04-12T11:06:58.903Z,99.90
2023-04-12T11:09:30.665Z,99.90
2023-04-12T11:11:59.999Z,99.90
2023-04-12T11:14:36.969Z,99.90
2023-04-12T11:17:24.609Z,99.90
2023-04-12T11:19:55.669Z,99.90
2023-04-12T11:22:24.789Z,99.90
2023-04-12T11:24:55.553Z,99.90
2023-04-12T11:27:24.794Z,99.90
2023-04-12T11:29:55.530Z,99.90
2023-04-12T11:32:24.938Z,99.90
2023-04-12T11:34:54.442Z,99.90
2023-04-12T11:37:22.795Z,99.90
2023-04-12T11:39:54.577Z,99.90
2023-04-12T11:42:24.953Z,99.90
2023-04-12T11:44:58.477Z,99.90
2023-04-12T11:47:28.636Z,99.90
2023-04-12T11:49:59.016Z,99.90
2023-04-12T11:52:29.904Z,99.90
2023-04-12T11:55:04.697Z,99.90
2023-04-12T11:57:32.440Z,99.90
2023-04-12T12:00:00.731Z,99.90
2023-04-12T12:02:32.903Z,99.90
2023-04-12T12:05:06.870Z,99.90
2023-04-12T12:07:35.801Z,99.90
2023-04-12T12:10:05.846Z,99.90
2023-04-12T12:12:35.033Z,99.90
2023-04-12T12:15:03.369Z,99.90
2023-04-12T12:17:31.200Z,99.90
2023-04-12T12:20:01.353Z,99.90
2023-04-12T12:22:29.135Z,99.90
2023-04-12T12:24:58.333Z,99.90
2023-04-12T12:27:38.139Z,99.90
2023-04-12T12:30:09.457Z,99.90
2023-04-12T12:32:38.794Z,99.90
2023-04-12T12:35:10.620Z,99.90
2023-04-12T12:37:38.560Z,99.90
2023-04-12T12:40:17.705Z,99.90
2023-04-12T12:42:48.497Z,99.90
2023-04-12T12:45:17.126Z,99.90
2023-04-12T12:47:52.839Z,99.90
2023-04-12T12:50:24.767Z,99.90
2023-04-12T12:52:53.713Z,99.90
2023-04-12T12:55:22.744Z,99.90
2023-04-12T12:58:06.621Z,99.90
2023-04-12T13:00:36.277Z,99.90
2023-04-12T13:03:04.573Z,99.90
2023-04-12T13:05:32.728Z,99.90
2023-04-12T13:08:00.487Z,99.90
2023-04-12T13:10:28.313Z,99.90
2023-04-12T13:12:58.685Z,99.90
2023-04-12T13:15:26.529Z,99.90
2023-04-12T13:17:54.694Z,99.90
2023-04-12T13:20:22.851Z,99.90
2023-04-12T13:22:52.052Z,99.90
2023-04-12T13:25:20.808Z,99.90
2023-04-12T13:27:49.197Z,99.90
2023-04-12T13:30:18.830Z,99.90
2023-04-12T13:32:46.793Z,99.90
2023-04-12T13:35:14.756Z,99.90
2023-04-12T13:37:42.954Z,99.90
2023-04-12T13:40:11.436Z,99.90
2023-04-12T13:42:39.224Z,99.90
2023-04-12T13:45:11.043Z,99.90
2023-04-12T13:47:40.837Z,99.90
2023-04-12T13:50:09.560Z,99.90
2023-04-12T13:52:37.412Z,99.90
2023-04-12T13:55:08.048Z,99.90
2023-04-12T13:57:36.332Z,99.90
2023-04-12T14:00:04.324Z,99.90
2023-04-12T14:02:32.159Z,99.90
2023-04-12T14:05:01.343Z,99.90
2023-04-12T14:07:29.458Z,99.90
2023-04-12T14:09:57.747Z,99.90
2023-04-12T14:12:25.576Z,99.90
2023-04-12T14:14:53.392Z,99.90
2023-04-12T14:17:21.355Z,99.90
2023-04-12T14:19:49.170Z,99.90
2023-04-12T14:22:18.259Z,99.90
2023-04-12T14:24:46.263Z,99.90
2023-04-12T14:27:14.997Z,99.90
2023-04-12T14:29:44.322Z,99.90
2023-04-12T14:32:12.166Z,99.90
2023-04-12T14:34:39.984Z,99.90
2023-04-12T14:37:08.348Z,99.90
2023-04-12T14:39:37.676Z,99.90
2023-04-12T14:42:06.223Z,99.90
2023-04-12T14:44:33.943Z,99.90
2023-04-12T14:47:01.741Z,99.90
2023-04-12T14:49:32.891Z,99.90
2023-04-12T14:52:01.178Z,99.90
2023-04-12T14:54:28.875Z,99.90
2023-04-12T14:56:58.176Z,99.90
2023-04-12T14:59:27.091Z,99.90
2023-04-12T15:01:55.008Z,99.90
2023-04-12T15:04:22.927Z,99.90
2023-04-12T15:06:50.909Z,99.90
2023-04-12T15:09:18.706Z,99.90
2023-04-12T15:11:50.477Z,99.90
2023-04-12T15:14:20.286Z,99.90
2023-04-12T15:16:50.009Z,99.90
2023-04-12T15:19:21.977Z,99.90
2023-04-12T15:21:51.909Z,99.90
2023-04-12T15:24:19.929Z,99.90
2023-04-12T15:26:48.933Z,99.90
2023-04-12T15:29:17.118Z,99.90
2023-04-12T15:31:47.144Z,99.90
2023-04-12T15:34:15.539Z,99.90
2023-04-12T15:36:44.233Z,99.90
2023-04-12T15:39:12.664Z,99.90
2023-04-12T15:41:42.128Z,99.90
2023-04-12T15:44:12.930Z,99.90
2023-04-12T15:46:41.355Z,99.90
2023-04-12T15:49:10.843Z,99.90
2023-04-12T15:51:38.806Z,99.90
2023-04-12T15:54:07.045Z,99.90
2023-04-12T15:56:35.401Z,99.90
2023-04-12T15:59:03.318Z,99.90
2023-04-12T16:01:31.044Z,99.90
2023-04-12T16:03:59.096Z,99.90
2023-04-12T16:06:30.350Z,99.90
2023-04-12T16:08:58.425Z,99.90
2023-04-12T16:11:26.428Z,99.90
2023-04-12T16:13:55.157Z,99.90
2023-04-12T16:16:24.450Z,99.90
2023-04-12T16:18:53.319Z,99.90
2023-04-12T16:21:23.286Z,99.90
2023-04-12T16:23:52.921Z,99.90
2023-04-12T16:26:22.527Z,99.90
2023-04-12T16:28:50.624Z,99.90
2023-04-12T16:31:19.746Z,99.90
2023-04-12T16:33:47.821Z,99.90
2023-04-12T16:36:16.467Z,99.90
2023-04-12T16:38:45.358Z,99.90
2023-04-12T16:41:14.543Z,99.90
2023-04-12T16:43:44.776Z,99.90
2023-04-12T16:46:13.252Z,99.90
2023-04-12T16:48:41.273Z,99.90
2023-04-12T16:51:09.031Z,99.90
2023-04-12T16:53:37.089Z,99.90
2023-04-12T16:56:05.408Z,99.90
2023-04-12T16:58:34.579Z,99.90
2023-04-12T17:01:02.361Z,99.90
2023-04-12T17:03:30.245Z,99.90
2023-04-12T17:05:58.049Z,99.90
2023-04-12T17:08:25.939Z,99.90
2023-04-12T17:10:54.273Z,99.90
2023-04-12T17:13:22.262Z,99.90
2023-04-12T17:15:51.379Z,99.90
2023-04-12T17:18:19.145Z,99.90
2023-04-12T17:20:47.111Z,99.90
2023-04-12T17:23:15.526Z,99.90
2023-04-12T17:25:43.586Z,99.90
2023-04-12T17:28:11.498Z,99.90
2023-04-12T17:30:39.359Z,99.90
2023-04-12T17:33:08.468Z,99.90
2023-04-12T17:35:36.906Z,99.90
2023-04-12T17:38:04.868Z,99.90
2023-04-12T17:40:32.660Z,99.90
2023-04-12T17:43:00.397Z,99.90
2023-04-12T17:45:28.494Z,99.90
2023-04-12T17:47:56.263Z,99.90
2023-04-12T17:50:25.749Z,99.90
2023-04-12T17:52:55.310Z,99.90
2023-04-12T17:55:25.703Z,99.90
2023-04-12T17:57:53.520Z,99.90
2023-04-12T18:00:23.409Z,99.90
2023-04-12T18:02:51.483Z,99.90
2023-04-12T18:05:19.866Z,99.90
2023-04-12T18:07:49.753Z,99.90
2023-04-12T18:10:21.452Z,99.90
2023-04-12T18:12:49.554Z,99.90
2023-04-12T18:15:18.066Z,99.90
2023-04-12T18:17:45.934Z,99.90
2023-04-12T18:20:13.894Z,99.90
2023-04-12T18:22:42.208Z,99.90
2023-04-12T18:25:12.726Z,99.90
2023-04-12T18:27:40.506Z,99.90
2023-04-12T18:30:09.292Z,99.90
2023-04-12T18:32:37.157Z,99.90
2023-04-12T18:35:05.234Z,99.90
2023-04-12T18:37:32.951Z,99.90
2023-04-12T18:40:00.735Z,99.90
2023-04-12T18:42:29.787Z,99.90
2023-04-12T18:44:58.157Z,99.90
2023-04-12T18:47:26.866Z,99.90
2023-04-12T18:49:54.968Z,99.90
2023-04-12T18:52:22.726Z,99.90
2023-04-12T18:54:50.550Z,99.90
2023-04-12T18:57:18.414Z,99.90
2023-04-12T18:59:48.852Z,99.90
2023-04-12T19:02:18.033Z,99.90
2023-04-12T19:04:45.832Z,99.90
2023-04-12T19:07:13.560Z,99.90
2023-04-12T19:09:41.968Z,99.90
2023-04-12T19:12:09.752Z,99.90
2023-04-12T19:14:37.503Z,99.90
2023-04-12T19:17:06.640Z,99.90
2023-04-12T19:19:34.394Z,99.90
2023-04-12T19:22:02.230Z,99.90
2023-04-12T19:24:30.054Z,99.90
2023-04-12T19:26:57.825Z,99.90
2023-04-12T19:29:27.180Z,99.90
2023-04-12T19:31:54.935Z,99.90
2023-04-12T19:34:24.293Z,99.90
2023-04-12T19:36:52.041Z,99.90
2023-04-12T19:39:20.296Z,99.90
2023-04-12T19:41:49.165Z,99.90
2023-04-12T19:44:16.958Z,99.90
2023-04-12T19:46:44.835Z,99.90
2023-04-12T19:49:13.274Z,99.90
2023-04-12T19:51:42.343Z,99.90
2023-04-12T19:54:10.301Z,99.90
2023-04-12T19:56:38.163Z,99.90
2023-04-12T19:59:06.498Z,99.90
2023-04-12T20:01:35.237Z,99.90
2023-04-12T20:04:05.506Z,99.90
2023-04-12T20:06:33.335Z,99.90
2023-04-12T20:09:02.478Z,99.90
2023-04-12T20:11:30.608Z,99.90
2023-04-12T20:13:58.609Z,99.90
2023-04-12T20:16:26.471Z,99.90
2023-04-12T20:18:57.506Z,99.90
2023-04-12T20:21:26.144Z,99.90
2023-04-12T20:23:53.853Z,99.90
2023-04-12T20:26:23.038Z,99.90
2023-04-12T20:28:50.759Z,99.90
2023-04-12T20:31:19.337Z,99.90
2023-04-12T20:33:47.254Z,99.90
2023-04-12T20:36:15.929Z,99.90
2023-04-12T20:38:43.942Z,99.90
2023-04-12T20:41:11.642Z,99.90
2023-04-12T20:43:45.898Z,99.90
2023-04-12T20:46:15.589Z,99.90
2023-04-12T20:48:43.492Z,99.90
2023-04-12T20:51:13.537Z,99.90
2023-04-12T20:53:43.576Z,99.90
2023-04-12T20:56:11.340Z,99.90
2023-04-12T20:58:39.075Z,99.90
2023-04-12T21:01:14.690Z,99.90
2023-04-12T21:03:43.531Z,99.90
2023-04-12T21:06:11.574Z,99.90
2023-04-12T21:08:39.703Z,99.90
2023-04-12T21:11:07.659Z,99.90
2023-04-12T21:13:35.494Z,99.90
2023-04-12T21:16:03.814Z,99.90
2023-04-12T21:18:34.255Z,99.90
2023-04-12T21:21:03.608Z,99.90
2023-04-12T21:23:31.335Z,99.90
2023-04-12T21:25:59.341Z,99.90
2023-04-12T21:28:29.502Z,99.90
2023-04-12T21:30:58.224Z,99.90
2023-04-12T21:33:26.277Z,99.90
2023-04-12T21:35:56.509Z,99.90
2023-04-12T21:38:24.920Z,99.90
2023-04-12T21:40:57.120Z,99.90
2023-04-12T21:43:25.164Z,99.90
2023-04-12T21:45:54.533Z,99.90
2023-04-12T21:48:22.519Z,99.90
2023-04-12T21:50:50.250Z,99.90
2023-04-12T21:53:19.349Z,99.90
2023-04-12T21:55:49.516Z,99.90
2023-04-12T21:58:17.896Z,99.90
2023-04-12T22:00:45.751Z,99.90
2023-04-12T22:03:13.853Z,99.90
2023-04-12T22:05:43.136Z,99.90
2023-04-12T22:08:12.287Z,99.90
2023-04-12T22:10:41.317Z,99.10
2023-04-12T22:13:10.146Z,98.70
2023-04-12T22:15:38.364Z,96.50
2023-04-12T22:18:06.589Z,96.00
2023-04-12T22:20:35.146Z,95.30
2023-04-12T22:23:02.946Z,95.10
2023-04-12T22:25:30.932Z,94.90
2023-04-12T22:28:01.018Z,94.70
2023-04-12T22:30:30.490Z,94.90
2023-04-12T22:32:59.433Z,95.40
2023-04-12T22:35:27.191Z,95.00
2023-04-12T22:37:54.980Z,94.10
2023-04-12T22:40:22.879Z,94.20
2023-04-12T22:42:50.662Z,94.00
2023-04-12T22:45:19.665Z,94.20
2023-04-12T22:47:47.481Z,94.20
2023-04-12T22:50:15.470Z,94.00
2023-04-12T22:52:43.203Z,93.50
2023-04-12T22:55:13.038Z,93.60
2023-04-12T22:57:40.824Z,93.80
2023-04-12T23:00:15.754Z,94.10
2023-04-12T23:02:46.119Z,95.50
2023-04-12T23:05:14.452Z,96.60
2023-04-12T23:07:43.252Z,97.70
2023-04-12T23:10:12.069Z,98.60
2023-04-12T23:12:39.828Z,99.70
2023-04-12T23:15:08.957Z,99.90
2023-04-12T23:17:37.182Z,99.90
2023-04-12T23:20:10.650Z,99.90
2023-04-12T23:22:56.755Z,99.90
2023-04-12T23:25:37.635Z,99.90
2023-04-12T23:28:07.454Z,99.90
2023-04-12T23:30:35.194Z,99.90
2023-04-12T23:33:03.176Z,99.90
2023-04-12T23:35:32.476Z,99.90
2023-04-12T23:38:01.467Z,99.90
2023-04-12T23:40:30.471Z,99.90
2023-04-12T23:42:58.604Z,99.90
2023-04-12T23:45:26.408Z,99.90
2023-04-12T23:47:54.239Z,99.90
2023-04-12T23:50:22.272Z,99.90
2023-04-12T23:52:51.848Z,99.90
2023-04-12T23:55:19.739Z,99.90
2023-04-12T23:57:47.505Z,99.90
